sensor_id;sensor_type;location;lat;lon;timestamp;P1;durP1;ratioP1;P2;durP2;ratioP2
56181;SDS011;51963;46.052;14.544;2023-07-29T00:01:21;4.35;;;3.40;;
56181;SDS011;51963;46.052;14.544;2023-07-29T00:03:47;7.28;;;3.58;;
56181;SDS011;51963;46.052;14.544;2023-07-29T00:06:13;4.40;;;3.40;;
56181;SDS011;51963;46.052;14.544;2023-07-29T00:08:38;4.13;;;3.13;;
56181;SDS011;51963;46.052;14.544;2023-07-29T00:11:04;4.80;;;3.70;;
56181;SDS011;51963;46.052;14.544;2023-07-29T00:13:30;6.75;;;3.90;;
56181;SDS011;51963;46.052;14.544;2023-07-29T00:15:56;3.83;;;3.38;;
56181;SDS011;51963;46.052;14.544;2023-07-29T00:18:22;5.90;;;3.50;;
56181;SDS011;51963;46.052;14.544;2023-07-29T00:20:49;6.32;;;4.05;;
56181;SDS011;51963;46.052;14.544;2023-07-29T00:23:16;5.53;;;3.72;;
56181;SDS011;51963;46.052;14.544;2023-07-29T00:25:44;7.85;;;3.60;;
56181;SDS011;51963;46.052;14.544;2023-07-29T00:28:11;6.55;;;4.40;;
56181;SDS011;51963;46.052;14.544;2023-07-29T00:30:37;7.03;;;4.38;;
56181;SDS011;51963;46.052;14.544;2023-07-29T00:33:04;6.28;;;4.18;;
56181;SDS011;51963;46.052;14.544;2023-07-29T00:35:30;6.28;;;4.30;;
56181;SDS011;51963;46.052;14.544;2023-07-29T00:37:55;10.43;;;4.53;;
56181;SDS011;51963;46.052;14.544;2023-07-29T00:40:22;7.32;;;4.45;;
56181;SDS011;51963;46.052;14.544;2023-07-29T00:42:48;6.53;;;4.18;;
56181;SDS011;51963;46.052;14.544;2023-07-29T00:45:15;8.80;;;4.57;;
56181;SDS011;51963;46.052;14.544;2023-07-29T00:47:42;9.05;;;5.35;;
56181;SDS011;51963;46.052;14.544;2023-07-29T00:50:12;8.15;;;5.10;;
56181;SDS011;51963;46.052;14.544;2023-07-29T00:52:40;7.20;;;4.30;;
56181;SDS011;51963;46.052;14.544;2023-07-29T00:55:06;7.95;;;4.70;;
56181;SDS011;51963;46.052;14.544;2023-07-29T00:57:32;6.75;;;4.70;;
56181;SDS011;51963;46.052;14.544;2023-07-29T00:59:58;9.43;;;4.78;;
56181;SDS011;51963;46.052;14.544;2023-07-29T01:02:26;6.80;;;4.57;;
56181;SDS011;51963;46.052;14.544;2023-07-29T01:04:55;8.45;;;5.03;;
56181;SDS011;51963;46.052;14.544;2023-07-29T01:15:16;6.70;;;4.32;;
56181;SDS011;51963;46.052;14.544;2023-07-29T01:18:02;6.93;;;4.45;;
56181;SDS011;51963;46.052;14.544;2023-07-29T01:20:32;5.47;;;4.22;;
56181;SDS011;51963;46.052;14.544;2023-07-29T01:22:59;6.32;;;4.55;;
56181;SDS011;51963;46.052;14.544;2023-07-29T01:25:28;7.90;;;4.88;;
56181;SDS011;51963;46.052;14.544;2023-07-29T01:27:53;5.20;;;4.57;;
56181;SDS011;51963;46.052;14.544;2023-07-29T01:30:21;8.65;;;4.88;;
56181;SDS011;51963;46.052;14.544;2023-07-29T01:32:54;5.57;;;4.82;;
56181;SDS011;51963;46.052;14.544;2023-07-29T01:35:28;6.78;;;4.78;;
56181;SDS011;51963;46.052;14.544;2023-07-29T01:38:05;6.63;;;4.60;;
56181;SDS011;51963;46.052;14.544;2023-07-29T01:40:34;6.82;;;5.15;;
56181;SDS011;51963;46.052;14.544;2023-07-29T01:43:01;6.25;;;5.28;;
56181;SDS011;51963;46.052;14.544;2023-07-29T01:45:28;6.43;;;5.03;;
56181;SDS011;51963;46.052;14.544;2023-07-29T01:47:56;8.35;;;4.70;;
56181;SDS011;51963;46.052;14.544;2023-07-29T01:50:22;6.85;;;4.28;;
56181;SDS011;51963;46.052;14.544;2023-07-29T01:52:48;6.88;;;4.32;;
56181;SDS011;51963;46.052;14.544;2023-07-29T01:55:16;6.85;;;5.07;;
56181;SDS011;51963;46.052;14.544;2023-07-29T01:57:42;6.13;;;4.78;;
56181;SDS011;51963;46.052;14.544;2023-07-29T02:00:10;9.00;;;5.15;;
56181;SDS011;51963;46.052;14.544;2023-07-29T02:02:46;6.63;;;5.78;;
56181;SDS011;51963;46.052;14.544;2023-07-29T02:05:11;10.15;;;6.30;;
56181;SDS011;51963;46.052;14.544;2023-07-29T02:07:40;5.88;;;4.95;;
56181;SDS011;51963;46.052;14.544;2023-07-29T02:10:06;8.50;;;4.82;;
56181;SDS011;51963;46.052;14.544;2023-07-29T02:12:33;6.63;;;5.13;;
56181;SDS011;51963;46.052;14.544;2023-07-29T02:15:00;7.95;;;5.50;;
56181;SDS011;51963;46.052;14.544;2023-07-29T02:17:26;7.30;;;5.32;;
56181;SDS011;51963;46.052;14.544;2023-07-29T02:19:51;7.15;;;5.50;;
56181;SDS011;51963;46.052;14.544;2023-07-29T02:22:17;6.93;;;5.72;;
56181;SDS011;51963;46.052;14.544;2023-07-29T02:24:44;7.38;;;6.10;;
56181;SDS011;51963;46.052;14.544;2023-07-29T02:27:10;8.82;;;6.28;;
56181;SDS011;51963;46.052;14.544;2023-07-29T02:29:36;7.78;;;5.53;;
56181;SDS011;51963;46.052;14.544;2023-07-29T02:32:02;7.93;;;5.50;;
56181;SDS011;51963;46.052;14.544;2023-07-29T02:34:28;6.97;;;5.53;;
56181;SDS011;51963;46.052;14.544;2023-07-29T02:36:55;6.65;;;5.50;;
56181;SDS011;51963;46.052;14.544;2023-07-29T02:39:21;8.98;;;5.95;;
56181;SDS011;51963;46.052;14.544;2023-07-29T02:41:49;9.13;;;6.40;;
56181;SDS011;51963;46.052;14.544;2023-07-29T02:44:15;7.40;;;6.18;;
56181;SDS011;51963;46.052;14.544;2023-07-29T02:46:41;8.13;;;6.05;;
56181;SDS011;51963;46.052;14.544;2023-07-29T02:49:07;8.80;;;5.97;;
56181;SDS011;51963;46.052;14.544;2023-07-29T02:51:33;7.28;;;6.00;;
56181;SDS011;51963;46.052;14.544;2023-07-29T02:53:59;9.02;;;5.50;;
56181;SDS011;51963;46.052;14.544;2023-07-29T02:56:25;9.75;;;6.25;;
56181;SDS011;51963;46.052;14.544;2023-07-29T02:58:50;7.47;;;6.25;;
56181;SDS011;51963;46.052;14.544;2023-07-29T03:01:19;9.13;;;5.70;;
56181;SDS011;51963;46.052;14.544;2023-07-29T03:03:45;7.95;;;6.05;;
56181;SDS011;51963;46.052;14.544;2023-07-29T03:06:12;8.02;;;5.82;;
56181;SDS011;51963;46.052;14.544;2023-07-29T03:08:39;6.72;;;5.45;;
56181;SDS011;51963;46.052;14.544;2023-07-29T03:11:06;7.05;;;5.75;;
56181;SDS011;51963;46.052;14.544;2023-07-29T03:13:33;7.80;;;6.10;;
56181;SDS011;51963;46.052;14.544;2023-07-29T03:16:08;7.95;;;5.30;;
56181;SDS011;51963;46.052;14.544;2023-07-29T03:18:35;10.90;;;5.93;;
56181;SDS011;51963;46.052;14.544;2023-07-29T03:21:02;6.75;;;5.68;;
56181;SDS011;51963;46.052;14.544;2023-07-29T03:23:29;8.60;;;5.63;;
56181;SDS011;51963;46.052;14.544;2023-07-29T03:25:56;7.25;;;6.22;;
56181;SDS011;51963;46.052;14.544;2023-07-29T03:28:24;7.25;;;6.55;;
56181;SDS011;51963;46.052;14.544;2023-07-29T03:30:57;9.02;;;6.03;;
56181;SDS011;51963;46.052;14.544;2023-07-29T03:33:24;7.45;;;5.75;;
56181;SDS011;51963;46.052;14.544;2023-07-29T03:35:51;9.07;;;6.28;;
56181;SDS011;51963;46.052;14.544;2023-07-29T03:38:17;7.97;;;6.25;;
56181;SDS011;51963;46.052;14.544;2023-07-29T03:40:43;7.35;;;5.68;;
56181;SDS011;51963;46.052;14.544;2023-07-29T03:43:09;9.13;;;6.82;;
56181;SDS011;51963;46.052;14.544;2023-07-29T03:45:36;9.18;;;6.45;;
56181;SDS011;51963;46.052;14.544;2023-07-29T03:48:02;7.03;;;6.30;;
56181;SDS011;51963;46.052;14.544;2023-07-29T03:50:33;11.82;;;6.15;;
56181;SDS011;51963;46.052;14.544;2023-07-29T03:53:01;8.15;;;6.45;;
56181;SDS011;51963;46.052;14.544;2023-07-29T03:55:27;8.18;;;6.50;;
56181;SDS011;51963;46.052;14.544;2023-07-29T03:57:56;8.57;;;6.40;;
56181;SDS011;51963;46.052;14.544;2023-07-29T04:00:23;10.95;;;6.90;;
56181;SDS011;51963;46.052;14.544;2023-07-29T04:02:49;7.68;;;6.78;;
56181;SDS011;51963;46.052;14.544;2023-07-29T04:05:16;7.80;;;6.20;;
56181;SDS011;51963;46.052;14.544;2023-07-29T04:07:42;9.75;;;7.32;;
56181;SDS011;51963;46.052;14.544;2023-07-29T04:10:10;9.57;;;7.32;;
56181;SDS011;51963;46.052;14.544;2023-07-29T04:15:06;14.05;;;7.07;;
56181;SDS011;51963;46.052;14.544;2023-07-29T04:17:32;7.63;;;6.38;;
56181;SDS011;51963;46.052;14.544;2023-07-29T04:19:59;7.93;;;6.90;;
56181;SDS011;51963;46.052;14.544;2023-07-29T04:22:31;8.18;;;6.30;;
56181;SDS011;51963;46.052;14.544;2023-07-29T04:24:59;7.53;;;6.18;;
56181;SDS011;51963;46.052;14.544;2023-07-29T04:27:25;8.75;;;6.47;;
56181;SDS011;51963;46.052;14.544;2023-07-29T04:29:51;9.88;;;6.50;;
56181;SDS011;51963;46.052;14.544;2023-07-29T04:32:19;9.18;;;6.80;;
56181;SDS011;51963;46.052;14.544;2023-07-29T04:34:44;8.38;;;6.47;;
56181;SDS011;51963;46.052;14.544;2023-07-29T04:37:12;8.20;;;6.30;;
56181;SDS011;51963;46.052;14.544;2023-07-29T04:39:38;10.68;;;6.68;;
56181;SDS011;51963;46.052;14.544;2023-07-29T04:42:04;8.77;;;6.40;;
56181;SDS011;51963;46.052;14.544;2023-07-29T04:44:30;7.95;;;6.85;;
56181;SDS011;51963;46.052;14.544;2023-07-29T04:46:55;6.93;;;5.75;;
56181;SDS011;51963;46.052;14.544;2023-07-29T04:49:21;7.97;;;6.63;;
56181;SDS011;51963;46.052;14.544;2023-07-29T04:51:47;7.57;;;6.78;;
56181;SDS011;51963;46.052;14.544;2023-07-29T04:54:16;11.05;;;6.82;;
56181;SDS011;51963;46.052;14.544;2023-07-29T04:56:41;8.77;;;6.80;;
56181;SDS011;51963;46.052;14.544;2023-07-29T04:59:07;11.00;;;7.40;;
56181;SDS011;51963;46.052;14.544;2023-07-29T05:01:34;9.50;;;6.60;;
56181;SDS011;51963;46.052;14.544;2023-07-29T05:04:00;9.20;;;6.38;;
56181;SDS011;51963;46.052;14.544;2023-07-29T05:06:26;8.93;;;6.07;;
56181;SDS011;51963;46.052;14.544;2023-07-29T05:08:51;10.43;;;6.07;;
56181;SDS011;51963;46.052;14.544;2023-07-29T05:11:17;9.38;;;6.20;;
56181;SDS011;51963;46.052;14.544;2023-07-29T05:13:43;9.23;;;5.95;;
56181;SDS011;51963;46.052;14.544;2023-07-29T05:16:26;8.27;;;6.30;;
56181;SDS011;51963;46.052;14.544;2023-07-29T05:18:54;10.73;;;6.45;;
56181;SDS011;51963;46.052;14.544;2023-07-29T05:21:20;10.05;;;6.32;;
56181;SDS011;51963;46.052;14.544;2023-07-29T05:23:46;10.05;;;6.00;;
56181;SDS011;51963;46.052;14.544;2023-07-29T05:26:15;9.40;;;6.32;;
56181;SDS011;51963;46.052;14.544;2023-07-29T05:28:41;15.35;;;7.05;;
56181;SDS011;51963;46.052;14.544;2023-07-29T05:31:07;10.82;;;5.95;;
56181;SDS011;51963;46.052;14.544;2023-07-29T05:33:33;9.43;;;5.80;;
56181;SDS011;51963;46.052;14.544;2023-07-29T05:35:58;9.82;;;5.70;;
56181;SDS011;51963;46.052;14.544;2023-07-29T05:38:31;10.77;;;6.32;;
56181;SDS011;51963;46.052;14.544;2023-07-29T05:40:57;10.88;;;6.20;;
56181;SDS011;51963;46.052;14.544;2023-07-29T05:43:26;8.65;;;6.05;;
56181;SDS011;51963;46.052;14.544;2023-07-29T05:45:52;6.85;;;5.75;;
56181;SDS011;51963;46.052;14.544;2023-07-29T05:48:19;10.13;;;6.47;;
56181;SDS011;51963;46.052;14.544;2023-07-29T05:50:45;14.38;;;6.15;;
56181;SDS011;51963;46.052;14.544;2023-07-29T05:53:11;12.52;;;6.47;;
56181;SDS011;51963;46.052;14.544;2023-07-29T05:55:36;10.13;;;5.70;;
56181;SDS011;51963;46.052;14.544;2023-07-29T05:58:04;8.55;;;5.50;;
56181;SDS011;51963;46.052;14.544;2023-07-29T06:00:30;10.10;;;6.22;;
56181;SDS011;51963;46.052;14.544;2023-07-29T06:02:59;13.43;;;6.38;;
56181;SDS011;51963;46.052;14.544;2023-07-29T06:05:25;8.60;;;5.75;;
56181;SDS011;51963;46.052;14.544;2023-07-29T06:07:51;7.78;;;6.05;;
56181;SDS011;51963;46.052;14.544;2023-07-29T06:10:19;15.57;;;6.50;;
56181;SDS011;51963;46.052;14.544;2023-07-29T06:12:46;11.52;;;6.53;;
56181;SDS011;51963;46.052;14.544;2023-07-29T06:15:12;11.63;;;6.88;;
56181;SDS011;51963;46.052;14.544;2023-07-29T06:17:38;7.90;;;5.78;;
56181;SDS011;51963;46.052;14.544;2023-07-29T06:20:05;9.68;;;6.70;;
56181;SDS011;51963;46.052;14.544;2023-07-29T06:22:31;11.32;;;6.07;;
56181;SDS011;51963;46.052;14.544;2023-07-29T06:24:57;9.43;;;6.22;;
56181;SDS011;51963;46.052;14.544;2023-07-29T06:27:23;9.70;;;6.75;;
56181;SDS011;51963;46.052;14.544;2023-07-29T06:29:54;9.80;;;6.28;;
56181;SDS011;51963;46.052;14.544;2023-07-29T06:32:19;7.55;;;4.93;;
56181;SDS011;51963;46.052;14.544;2023-07-29T06:34:45;8.20;;;4.95;;
56181;SDS011;51963;46.052;14.544;2023-07-29T06:37:11;7.63;;;5.40;;
56181;SDS011;51963;46.052;14.544;2023-07-29T06:39:39;7.25;;;5.00;;
56181;SDS011;51963;46.052;14.544;2023-07-29T06:42:04;10.07;;;5.35;;
56181;SDS011;51963;46.052;14.544;2023-07-29T06:44:30;11.38;;;5.70;;
56181;SDS011;51963;46.052;14.544;2023-07-29T06:46:57;9.52;;;5.38;;
56181;SDS011;51963;46.052;14.544;2023-07-29T06:49:23;6.65;;;5.85;;
56181;SDS011;51963;46.052;14.544;2023-07-29T06:51:49;8.13;;;5.40;;
56181;SDS011;51963;46.052;14.544;2023-07-29T06:54:17;8.80;;;4.97;;
56181;SDS011;51963;46.052;14.544;2023-07-29T06:56:45;8.85;;;5.18;;
56181;SDS011;51963;46.052;14.544;2023-07-29T06:59:10;10.90;;;5.18;;
56181;SDS011;51963;46.052;14.544;2023-07-29T07:01:39;7.32;;;5.18;;
56181;SDS011;51963;46.052;14.544;2023-07-29T07:04:05;5.00;;;4.50;;
56181;SDS011;51963;46.052;14.544;2023-07-29T07:06:31;10.63;;;5.68;;
56181;SDS011;51963;46.052;14.544;2023-07-29T07:11:24;6.63;;;5.25;;
56181;SDS011;51963;46.052;14.544;2023-07-29T07:13:50;10.68;;;7.75;;
56181;SDS011;51963;46.052;14.544;2023-07-29T07:16:15;12.13;;;7.25;;
56181;SDS011;51963;46.052;14.544;2023-07-29T07:18:41;12.75;;;7.07;;
56181;SDS011;51963;46.052;14.544;2023-07-29T07:21:07;17.13;;;9.27;;
56181;SDS011;51963;46.052;14.544;2023-07-29T07:23:32;14.75;;;9.30;;
56181;SDS011;51963;46.052;14.544;2023-07-29T07:26:01;16.20;;;9.52;;
56181;SDS011;51963;46.052;14.544;2023-07-29T07:28:26;11.43;;;7.70;;
56181;SDS011;51963;46.052;14.544;2023-07-29T07:30:54;13.80;;;7.00;;
56181;SDS011;51963;46.052;14.544;2023-07-29T07:33:21;19.88;;;8.95;;
56181;SDS011;51963;46.052;14.544;2023-07-29T07:35:47;12.57;;;7.25;;
56181;SDS011;51963;46.052;14.544;2023-07-29T07:38:13;14.32;;;6.47;;
56181;SDS011;51963;46.052;14.544;2023-07-29T07:40:39;8.65;;;5.32;;
56181;SDS011;51963;46.052;14.544;2023-07-29T07:43:05;6.85;;;5.05;;
56181;SDS011;51963;46.052;14.544;2023-07-29T07:45:31;6.93;;;4.72;;
56181;SDS011;51963;46.052;14.544;2023-07-29T07:47:57;5.40;;;4.40;;
56181;SDS011;51963;46.052;14.544;2023-07-29T07:50:23;5.95;;;4.10;;
56181;SDS011;51963;46.052;14.544;2023-07-29T07:52:49;8.70;;;4.13;;
56181;SDS011;51963;46.052;14.544;2023-07-29T07:55:15;6.32;;;4.30;;
56181;SDS011;51963;46.052;14.544;2023-07-29T07:57:41;6.30;;;4.45;;
56181;SDS011;51963;46.052;14.544;2023-07-29T08:00:06;6.60;;;3.95;;
56181;SDS011;51963;46.052;14.544;2023-07-29T08:02:38;5.32;;;3.97;;
56181;SDS011;51963;46.052;14.544;2023-07-29T08:05:04;5.25;;;3.85;;
56181;SDS011;51963;46.052;14.544;2023-07-29T08:07:30;4.07;;;3.63;;
56181;SDS011;51963;46.052;14.544;2023-07-29T08:09:55;6.88;;;3.63;;
56181;SDS011;51963;46.052;14.544;2023-07-29T08:12:21;6.28;;;3.85;;
56181;SDS011;51963;46.052;14.544;2023-07-29T08:14:47;7.82;;;3.72;;
56181;SDS011;51963;46.052;14.544;2023-07-29T08:17:12;8.82;;;3.90;;
56181;SDS011;51963;46.052;14.544;2023-07-29T08:19:38;6.85;;;3.80;;
56181;SDS011;51963;46.052;14.544;2023-07-29T08:22:04;5.75;;;3.90;;
56181;SDS011;51963;46.052;14.544;2023-07-29T08:24:30;7.47;;;3.37;;
56181;SDS011;51963;46.052;14.544;2023-07-29T08:26:56;6.22;;;3.80;;
56181;SDS011;51963;46.052;14.544;2023-07-29T08:29:22;5.72;;;3.80;;
56181;SDS011;51963;46.052;14.544;2023-07-29T08:31:47;7.20;;;4.15;;
56181;SDS011;51963;46.052;14.544;2023-07-29T08:34:14;6.93;;;3.90;;
56181;SDS011;51963;46.052;14.544;2023-07-29T08:36:39;5.03;;;3.80;;
56181;SDS011;51963;46.052;14.544;2023-07-29T08:39:05;7.15;;;3.88;;
56181;SDS011;51963;46.052;14.544;2023-07-29T08:42:04;6.03;;;3.35;;
56181;SDS011;51963;46.052;14.544;2023-07-29T08:44:29;6.10;;;3.20;;
56181;SDS011;51963;46.052;14.544;2023-07-29T08:47:02;6.57;;;3.70;;
56181;SDS011;51963;46.052;14.544;2023-07-29T08:49:28;6.85;;;3.47;;
56181;SDS011;51963;46.052;14.544;2023-07-29T08:51:55;6.88;;;4.18;;
56181;SDS011;51963;46.052;14.544;2023-07-29T08:56:48;9.88;;;4.03;;
56181;SDS011;51963;46.052;14.544;2023-07-29T08:59:14;4.13;;;3.72;;
56181;SDS011;51963;46.052;14.544;2023-07-29T09:01:42;7.53;;;4.18;;
56181;SDS011;51963;46.052;14.544;2023-07-29T09:04:09;6.47;;;3.80;;
56181;SDS011;51963;46.052;14.544;2023-07-29T09:06:35;10.85;;;4.00;;
56181;SDS011;51963;46.052;14.544;2023-07-29T09:09:03;4.53;;;3.53;;
56181;SDS011;51963;46.052;14.544;2023-07-29T09:11:29;4.60;;;3.60;;
56181;SDS011;51963;46.052;14.544;2023-07-29T09:13:56;5.40;;;3.63;;
56181;SDS011;51963;46.052;14.544;2023-07-29T09:16:22;4.68;;;3.22;;
56181;SDS011;51963;46.052;14.544;2023-07-29T09:18:50;3.38;;;3.03;;
56181;SDS011;51963;46.052;14.544;2023-07-29T09:21:17;3.92;;;2.92;;
56181;SDS011;51963;46.052;14.544;2023-07-29T09:23:48;4.00;;;3.28;;
56181;SDS011;51963;46.052;14.544;2023-07-29T09:28:50;4.45;;;3.05;;
56181;SDS011;51963;46.052;14.544;2023-07-29T09:31:24;4.90;;;3.35;;
56181;SDS011;51963;46.052;14.544;2023-07-29T09:34:01;4.32;;;3.05;;
56181;SDS011;51963;46.052;14.544;2023-07-29T09:36:30;5.40;;;3.22;;
56181;SDS011;51963;46.052;14.544;2023-07-29T09:38:57;5.07;;;3.15;;
56181;SDS011;51963;46.052;14.544;2023-07-29T09:41:27;3.50;;;2.60;;
56181;SDS011;51963;46.052;14.544;2023-07-29T09:43:57;4.65;;;2.85;;
56181;SDS011;51963;46.052;14.544;2023-07-29T09:46:24;3.38;;;2.65;;
56181;SDS011;51963;46.052;14.544;2023-07-29T09:48:52;3.58;;;2.92;;
56181;SDS011;51963;46.052;14.544;2023-07-29T09:51:21;3.10;;;2.80;;
56181;SDS011;51963;46.052;14.544;2023-07-29T09:53:47;7.20;;;3.42;;
56181;SDS011;51963;46.052;14.544;2023-07-29T09:56:15;5.72;;;3.03;;
56181;SDS011;51963;46.052;14.544;2023-07-29T09:58:44;3.75;;;2.97;;
56181;SDS011;51963;46.052;14.544;2023-07-29T10:01:11;7.53;;;3.67;;
56181;SDS011;51963;46.052;14.544;2023-07-29T10:03:37;2.72;;;2.53;;
56181;SDS011;51963;46.052;14.544;2023-07-29T10:06:03;4.20;;;2.92;;
56181;SDS011;51963;46.052;14.544;2023-07-29T10:08:31;2.80;;;2.60;;
56181;SDS011;51963;46.052;14.544;2023-07-29T10:11:06;5.55;;;2.65;;
56181;SDS011;51963;46.052;14.544;2023-07-29T10:13:33;6.63;;;2.40;;
56181;SDS011;51963;46.052;14.544;2023-07-29T10:16:00;4.07;;;1.93;;
56181;SDS011;51963;46.052;14.544;2023-07-29T10:18:31;2.65;;;1.80;;
56181;SDS011;51963;46.052;14.544;2023-07-29T10:20:58;2.10;;;1.90;;
56181;SDS011;51963;46.052;14.544;2023-07-29T10:23:26;2.15;;;1.80;;
56181;SDS011;51963;46.052;14.544;2023-07-29T10:26:11;2.10;;;1.70;;
56181;SDS011;51963;46.052;14.544;2023-07-29T10:28:46;3.17;;;1.77;;
56181;SDS011;51963;46.052;14.544;2023-07-29T10:31:13;2.00;;;1.60;;
56181;SDS011;51963;46.052;14.544;2023-07-29T10:33:42;1.70;;;1.60;;
56181;SDS011;51963;46.052;14.544;2023-07-29T10:38:37;1.98;;;1.45;;
56181;SDS011;51963;46.052;14.544;2023-07-29T10:41:03;2.80;;;1.70;;
56181;SDS011;51963;46.052;14.544;2023-07-29T10:45:55;2.15;;;1.73;;
56181;SDS011;51963;46.052;14.544;2023-07-29T10:53:58;2.03;;;1.70;;
56181;SDS011;51963;46.052;14.544;2023-07-29T10:56:36;3.08;;;1.60;;
56181;SDS011;51963;46.052;14.544;2023-07-29T11:01:37;2.00;;;1.77;;
56181;SDS011;51963;46.052;14.544;2023-07-29T11:15:13;3.05;;;1.90;;
56181;SDS011;51963;46.052;14.544;2023-07-29T11:17:46;2.42;;;2.13;;
56181;SDS011;51963;46.052;14.544;2023-07-29T11:20:14;3.10;;;1.33;;
56181;SDS011;51963;46.052;14.544;2023-07-29T11:22:41;1.55;;;1.45;;
56181;SDS011;51963;46.052;14.544;2023-07-29T11:25:08;1.77;;;1.67;;
56181;SDS011;51963;46.052;14.544;2023-07-29T11:27:35;2.00;;;1.60;;
56181;SDS011;51963;46.052;14.544;2023-07-29T11:30:08;3.08;;;1.67;;
56181;SDS011;51963;46.052;14.544;2023-07-29T11:32:35;1.85;;;1.50;;
56181;SDS011;51963;46.052;14.544;2023-07-29T11:37:33;2.10;;;1.60;;
56181;SDS011;51963;46.052;14.544;2023-07-29T11:40:00;1.50;;;1.40;;
56181;SDS011;51963;46.052;14.544;2023-07-29T11:42:31;1.75;;;1.65;;
56181;SDS011;51963;46.052;14.544;2023-07-29T11:44:59;1.65;;;1.50;;
56181;SDS011;51963;46.052;14.544;2023-07-29T11:47:26;1.60;;;1.50;;
56181;SDS011;51963;46.052;14.544;2023-07-29T11:49:52;2.22;;;1.88;;
56181;SDS011;51963;46.052;14.544;2023-07-29T11:52:18;2.17;;;1.50;;
56181;SDS011;51963;46.052;14.544;2023-07-29T11:54:45;2.47;;;1.55;;
56181;SDS011;51963;46.052;14.544;2023-07-29T11:57:14;4.97;;;1.90;;
56181;SDS011;51963;46.052;14.544;2023-07-29T11:59:41;5.43;;;2.03;;
56181;SDS011;51963;46.052;14.544;2023-07-29T12:02:14;2.97;;;1.80;;
56181;SDS011;51963;46.052;14.544;2023-07-29T12:04:42;2.20;;;1.50;;
56181;SDS011;51963;46.052;14.544;2023-07-29T12:07:12;2.85;;;2.00;;
56181;SDS011;51963;46.052;14.544;2023-07-29T12:09:39;2.00;;;1.80;;
56181;SDS011;51963;46.052;14.544;2023-07-29T12:12:06;2.55;;;2.00;;
56181;SDS011;51963;46.052;14.544;2023-07-29T12:14:32;2.42;;;2.17;;
56181;SDS011;51963;46.052;14.544;2023-07-29T12:19:46;2.35;;;2.00;;
56181;SDS011;51963;46.052;14.544;2023-07-29T12:22:17;4.13;;;1.90;;
56181;SDS011;51963;46.052;14.544;2023-07-29T12:24:44;4.60;;;2.30;;
56181;SDS011;51963;46.052;14.544;2023-07-29T12:27:11;2.28;;;1.55;;
56181;SDS011;51963;46.052;14.544;2023-07-29T12:29:41;2.28;;;1.80;;
56181;SDS011;51963;46.052;14.544;2023-07-29T12:32:08;2.17;;;1.85;;
56181;SDS011;51963;46.052;14.544;2023-07-29T12:34:35;3.50;;;1.73;;
56181;SDS011;51963;46.052;14.544;2023-07-29T12:37:03;3.70;;;1.88;;
56181;SDS011;51963;46.052;14.544;2023-07-29T12:39:31;4.00;;;1.73;;
56181;SDS011;51963;46.052;14.544;2023-07-29T12:42:01;2.53;;;1.42;;
56181;SDS011;51963;46.052;14.544;2023-07-29T12:44:30;2.53;;;1.70;;
56181;SDS011;51963;46.052;14.544;2023-07-29T12:46:57;2.15;;;1.73;;
56181;SDS011;51963;46.052;14.544;2023-07-29T12:49:24;3.70;;;1.60;;
56181;SDS011;51963;46.052;14.544;2023-07-29T12:51:50;5.13;;;2.05;;
56181;SDS011;51963;46.052;14.544;2023-07-29T12:54:15;1.60;;;1.50;;
56181;SDS011;51963;46.052;14.544;2023-07-29T12:56:41;2.97;;;1.60;;
56181;SDS011;51963;46.052;14.544;2023-07-29T12:59:07;2.13;;;1.90;;
56181;SDS011;51963;46.052;14.544;2023-07-29T13:01:32;7.20;;;1.73;;
56181;SDS011;51963;46.052;14.544;2023-07-29T13:03:58;2.03;;;1.93;;
56181;SDS011;51963;46.052;14.544;2023-07-29T13:06:24;3.50;;;1.90;;
56181;SDS011;51963;46.052;14.544;2023-07-29T13:08:50;5.23;;;1.90;;
56181;SDS011;51963;46.052;14.544;2023-07-29T13:11:16;2.23;;;1.70;;
56181;SDS011;51963;46.052;14.544;2023-07-29T13:13:42;1.60;;;1.50;;
56181;SDS011;51963;46.052;14.544;2023-07-29T13:16:08;2.67;;;1.77;;
56181;SDS011;51963;46.052;14.544;2023-07-29T13:18:33;2.10;;;1.60;;
56181;SDS011;51963;46.052;14.544;2023-07-29T13:20:59;1.93;;;1.73;;
56181;SDS011;51963;46.052;14.544;2023-07-29T13:23:25;3.45;;;1.80;;
56181;SDS011;51963;46.052;14.544;2023-07-29T13:25:52;1.52;;;1.42;;
56181;SDS011;51963;46.052;14.544;2023-07-29T13:28:18;2.80;;;1.50;;
56181;SDS011;51963;46.052;14.544;2023-07-29T13:30:44;2.65;;;1.80;;
56181;SDS011;51963;46.052;14.544;2023-07-29T13:33:10;2.05;;;1.83;;
56181;SDS011;51963;46.052;14.544;2023-07-29T13:35:36;4.83;;;3.40;;
56181;SDS011;51963;46.052;14.544;2023-07-29T13:38:02;2.93;;;2.17;;
56181;SDS011;51963;46.052;14.544;2023-07-29T13:40:28;5.10;;;1.83;;
56181;SDS011;51963;46.052;14.544;2023-07-29T13:42:54;2.28;;;1.60;;
56181;SDS011;51963;46.052;14.544;2023-07-29T13:47:49;2.15;;;1.60;;
56181;SDS011;51963;46.052;14.544;2023-07-29T13:50:15;3.28;;;2.33;;
56181;SDS011;51963;46.052;14.544;2023-07-29T13:52:44;4.53;;;1.95;;
56181;SDS011;51963;46.052;14.544;2023-07-29T13:55:10;2.50;;;1.97;;
56181;SDS011;51963;46.052;14.544;2023-07-29T13:57:36;4.47;;;2.00;;
56181;SDS011;51963;46.052;14.544;2023-07-29T14:00:04;6.07;;;2.38;;
56181;SDS011;51963;46.052;14.544;2023-07-29T14:02:36;2.58;;;1.60;;
56181;SDS011;51963;46.052;14.544;2023-07-29T14:05:02;2.20;;;2.00;;
56181;SDS011;51963;46.052;14.544;2023-07-29T14:07:28;2.17;;;1.80;;
56181;SDS011;51963;46.052;14.544;2023-07-29T14:09:54;5.53;;;1.67;;
56181;SDS011;51963;46.052;14.544;2023-07-29T14:12:20;1.93;;;1.70;;
56181;SDS011;51963;46.052;14.544;2023-07-29T14:14:45;3.57;;;1.80;;
56181;SDS011;51963;46.052;14.544;2023-07-29T14:17:13;2.03;;;1.52;;
56181;SDS011;51963;46.052;14.544;2023-07-29T14:19:39;1.67;;;1.57;;
56181;SDS011;51963;46.052;14.544;2023-07-29T14:22:05;2.37;;;1.80;;
56181;SDS011;51963;46.052;14.544;2023-07-29T14:24:31;7.00;;;1.77;;
56181;SDS011;51963;46.052;14.544;2023-07-29T14:26:56;4.87;;;1.60;;
56181;SDS011;51963;46.052;14.544;2023-07-29T14:29:22;3.13;;;1.43;;
56181;SDS011;51963;46.052;14.544;2023-07-29T14:31:48;3.67;;;1.70;;
56181;SDS011;51963;46.052;14.544;2023-07-29T14:34:14;3.67;;;2.00;;
56181;SDS011;51963;46.052;14.544;2023-07-29T14:36:40;3.27;;;1.60;;
56181;SDS011;51963;46.052;14.544;2023-07-29T14:39:05;3.47;;;1.60;;
56181;SDS011;51963;46.052;14.544;2023-07-29T14:41:31;3.03;;;1.63;;
56181;SDS011;51963;46.052;14.544;2023-07-29T14:43:57;3.13;;;1.70;;
56181;SDS011;51963;46.052;14.544;2023-07-29T14:46:22;2.20;;;1.40;;
56181;SDS011;51963;46.052;14.544;2023-07-29T14:48:48;2.83;;;1.60;;
56181;SDS011;51963;46.052;14.544;2023-07-29T14:51:14;1.90;;;1.70;;
56181;SDS011;51963;46.052;14.544;2023-07-29T14:53:40;2.35;;;1.92;;
56181;SDS011;51963;46.052;14.544;2023-07-29T14:56:06;5.03;;;3.97;;
56181;SDS011;51963;46.052;14.544;2023-07-29T14:58:32;3.08;;;2.10;;
56181;SDS011;51963;46.052;14.544;2023-07-29T15:00:58;2.80;;;2.05;;
56181;SDS011;51963;46.052;14.544;2023-07-29T15:03:24;2.28;;;2.00;;
56181;SDS011;51963;46.052;14.544;2023-07-29T15:05:50;4.15;;;1.85;;
56181;SDS011;51963;46.052;14.544;2023-07-29T15:08:16;3.50;;;2.07;;
56181;SDS011;51963;46.052;14.544;2023-07-29T15:10:47;3.42;;;1.90;;
56181;SDS011;51963;46.052;14.544;2023-07-29T15:13:13;2.80;;;1.70;;
56181;SDS011;51963;46.052;14.544;2023-07-29T15:15:40;2.67;;;1.88;;
56181;SDS011;51963;46.052;14.544;2023-07-29T15:18:07;2.20;;;1.63;;
56181;SDS011;51963;46.052;14.544;2023-07-29T15:20:33;2.60;;;1.70;;
56181;SDS011;51963;46.052;14.544;2023-07-29T15:22:59;3.58;;;2.20;;